Time;durP1;ratioP1;P1;durP2;ratioP2;P2;SDS_P1;SDS_P2;PMS_P1;PMS_P2;Temp;Humidity;BMP_temperature;BMP_pressure;BME280_temperature;BME280_humidity;BME280_pressure;Samples;Min_cycle;Max_cycle;Signal;HPM_P1;HPM_P2
2020/12/13 00:00:11;;;;;;;57.43;27.58;;;;;;;-0.79;84.26;100478.19;1746123;82;21323;-51
2020/12/13 00:02:38;;;;;;;61.85;29.25;;;;;;;-0.76;84.26;100483.19;1745791;81;21076;-51
2020/12/13 00:05:06;;;;;;;58.15;26.27;;;;;;;-0.76;84.31;100493.47;1745964;82;20930;-51
2020/12/13 00:07:34;;;;;;;62.55;28.50;;;;;;;-0.73;84.35;100494.42;1746005;82;20934;-51
2020/12/13 00:10:02;;;;;;;61.53;26.93;;;;;;;-0.71;84.22;100496.40;1745911;82;21029;-51
2020/12/13 00:12:30;;;;;;;74.32;30.30;;;;;;;-0.72;84.18;100492.55;1745811;82;21267;-52
2020/12/13 00:14:59;;;;;;;70.03;31.68;;;;;;;-0.74;84.21;100499.49;1753421;80;21560;-52
2020/12/13 00:17:27;;;;;;;62.50;28.90;;;;;;;-0.74;84.36;100494.63;1756282;81;21053;-52
2020/12/13 00:19:54;;;;;;;57.88;29.42;;;;;;;-0.68;84.48;100499.75;1756203;81;21065;-52
2020/12/13 00:22:21;;;;;;;59.20;28.55;;;;;;;-0.63;84.53;100502.66;1756467;81;20990;-52
2020/12/13 00:24:49;;;;;;;56.05;28.00;;;;;;;-0.59;84.35;100497.20;1756492;81;21632;-51
2020/12/13 00:27:17;;;;;;;41.68;21.75;;;;;;;-0.62;84.17;100498.95;1756157;81;21002;-51
2020/12/13 00:29:45;;;;;;;53.65;27.45;;;;;;;-0.66;84.26;100505.23;1756451;81;21026;-52
2020/12/13 00:32:12;;;;;;;49.85;24.50;;;;;;;-0.68;84.32;100498.41;1756298;81;21042;-52
2020/12/13 00:34:40;;;;;;;44.63;23.40;;;;;;;-0.65;84.40;100502.87;1756326;81;21065;-51
2020/12/13 00:37:07;;;;;;;53.42;27.35;;;;;;;-0.63;84.38;100502.66;1756245;81;22622;-52
2020/12/13 00:39:38;;;;;;;43.60;25.77;;;;;;;-0.68;84.36;100497.05;1756326;81;21560;-52
2020/12/13 00:42:04;;;;;;;56.63;27.87;;;;;;;-0.70;84.48;100499.42;1756166;81;21038;-52
2020/12/13 00:44:32;;;;;;;45.03;24.50;;;;;;;-0.68;84.56;100494.35;1756338;81;21631;-51
2020/12/13 00:46:59;;;;;;;45.52;26.40;;;;;;;-0.68;84.52;100488.95;1756388;81;21025;-52
2020/12/13 00:49:29;;;;;;;50.43;25.85;;;;;;;-0.70;84.56;100494.03;1756171;81;21290;-52
2020/12/13 00:52:04;;;;;;;48.25;27.80;;;;;;;-0.68;84.67;100482.22;1743134;81;21144;-51
2020/12/13 00:54:32;;;;;;;51.92;24.55;;;;;;;-0.64;84.73;100491.55;1756357;81;21069;-52
2020/12/13 00:57:00;;;;;;;53.05;26.60;;;;;;;-0.62;84.68;100477.36;1755986;81;21013;-52
2020/12/13 00:59:28;;;;;;;46.53;25.55;;;;;;;-0.64;84.70;100487.50;1756406;81;21053;-52
2020/12/13 01:01:55;;;;;;;46.18;23.95;;;;;;;-0.65;84.73;100478.59;1756451;81;22164;-52
2020/12/13 01:04:23;;;;;;;51.83;26.37;;;;;;;-0.65;84.78;100479.11;1756319;81;21022;-52
2020/12/13 01:06:52;;;;;;;45.67;22.95;;;;;;;-0.64;84.92;100475.36;1756487;81;20990;-51
2020/12/13 01:09:19;;;;;;;45.12;24.72;;;;;;;-0.62;85.04;100476.02;1756151;81;21021;-52
2020/12/13 01:11:47;;;;;;;52.62;26.55;;;;;;;-0.62;85.04;100479.53;1756406;81;21053;-51
2020/12/13 01:14:14;;;;;;;50.67;25.92;;;;;;;-0.61;85.04;100478.52;1753607;81;21347;-51
2020/12/13 01:16:42;;;;;;;49.13;24.72;;;;;;;-0.58;85.05;100476.77;1746039;81;20997;-51
2020/12/13 01:19:09;;;;;;;44.38;27.55;;;;;;;-0.59;84.95;100476.44;1745860;82;21021;-51
2020/12/13 01:21:38;;;;;;;48.90;22.85;;;;;;;-0.58;85.07;100478.11;1745958;82;21025;-51
2020/12/13 01:24:06;;;;;;;51.75;25.40;;;;;;;-0.56;85.10;100477.41;1745994;81;21437;-51
2020/12/13 01:26:33;;;;;;;49.65;24.05;;;;;;;-0.56;85.03;100472.52;1745437;82;21352;-51
2020/12/13 01:29:00;;;;;;;44.15;23.57;;;;;;;-0.59;85.12;100473.73;1745945;82;21040;-51
2020/12/13 01:31:28;;;;;;;48.52;25.97;;;;;;;-0.60;85.18;100470.75;1745811;82;21021;-51
2020/12/13 01:33:56;;;;;;;38.15;21.00;;;;;;;-0.61;85.18;100468.25;1745921;82;20978;-51
2020/12/13 01:36:24;;;;;;;38.30;21.55;;;;;;;-0.60;85.31;100462.65;1745886;82;21346;-51
2020/12/13 01:38:52;;;;;;;42.53;24.67;;;;;;;-0.62;85.33;100459.83;1745888;82;21354;-51
2020/12/13 01:41:19;;;;;;;41.40;22.75;;;;;;;-0.64;85.37;100453.78;1745662;82;21027;-50
2020/12/13 01:44:02;;;;;;;41.90;24.27;;;;;;;-0.63;85.43;100463.55;1745929;82;20989;-51
2020/12/13 01:46:33;;;;;;;47.65;24.00;;;;;;;-0.59;85.66;100467.52;1745825;82;21021;-51
2020/12/13 01:49:06;;;;;;;47.90;24.82;;;;;;;-0.57;85.52;100460.90;1745884;82;21021;-51
2020/12/13 01:51:50;;;;;;;35.03;21.95;;;;;;;-0.55;85.62;100460.17;1745827;82;21129;-50
2020/12/13 01:54:14;;;;;;;31.40;19.25;;;;;;;-0.50;85.53;100465.48;1745081;82;21017;-51
2020/12/13 01:56:49;;;;;;;37.05;21.60;;;;;;;-0.52;85.48;100461.11;1745916;81;21330;-51
2020/12/13 01:59:19;;;;;;;35.90;21.82;;;;;;;-0.55;85.49;100453.95;1745794;82;20973;-50
2020/12/13 02:01:49;;;;;;;38.17;22.00;;;;;;;-0.54;85.71;100455.62;1745956;82;21560;-50
2020/12/13 02:07:01;;;;;;;42.20;23.40;;;;;;;-0.42;85.69;100452.66;1846782;76;28111;-51
2020/12/13 02:09:29;;;;;;;39.83;24.50;;;;;;;-0.44;85.62;100449.88;1816807;79;20974;-51
2020/12/13 02:11:56;;;;;;;42.78;23.62;;;;;;;-0.43;85.61;100451.52;1816836;79;21070;-51
2020/12/13 02:14:23;;;;;;;35.43;21.60;;;;;;;-0.44;85.61;100447.99;1816842;79;20931;-51
2020/12/13 02:16:52;;;;;;;34.67;21.20;;;;;;;-0.40;85.65;100457.36;1816646;79;21029;-51
2020/12/13 02:19:21;;;;;;;39.78;21.93;;;;;;;-0.40;85.56;100462.75;1816822;79;21006;-51
2020/12/13 02:21:49;;;;;;;38.78;22.65;;;;;;;-0.40;85.53;100474.05;1816833;79;21033;-51
2020/12/13 02:24:20;;;;;;;32.67;21.80;;;;;;;-0.37;85.50;100468.27;1816801;79;21230;-51
2020/12/13 02:26:48;;;;;;;39.83;22.45;;;;;;;-0.37;85.46;100466.40;1816643;79;21321;-51
2020/12/13 02:29:16;;;;;;;30.75;21.15;;;;;;;-0.36;85.44;100459.12;1816667;79;20981;-51
2020/12/13 02:31:44;;;;;;;31.77;20.82;;;;;;;-0.35;85.41;100454.05;1816851;79;21576;-51
2020/12/13 02:34:12;;;;;;;33.33;21.27;;;;;;;-0.38;85.41;100454.45;1816710;79;20985;-51
2020/12/13 02:36:41;;;;;;;30.27;19.12;;;;;;;-0.37;85.56;100459.66;1816794;79;20978;-51
2020/12/13 02:39:10;;;;;;;31.23;21.02;;;;;;;-0.38;85.48;100467.42;1816613;79;21916;-51
2020/12/13 02:41:37;;;;;;;35.75;21.73;;;;;;;-0.37;85.59;100463.70;1796716;79;21049;-51
2020/12/13 02:44:05;;;;;;;37.67;22.15;;;;;;;-0.32;85.62;100460.92;1784622;80;21037;-51
2020/12/13 02:46:32;;;;;;;36.60;23.22;;;;;;;-0.28;85.54;100454.91;1784558;80;21041;-51
2020/12/13 02:49:00;;;;;;;41.85;23.75;;;;;;;-0.26;85.52;100456.05;1784483;80;21141;-51
2020/12/13 02:51:28;;;;;;;30.02;21.12;;;;;;;-0.23;85.56;100454.30;1784210;80;21033;-51
2020/12/13 02:53:55;;;;;;;34.20;20.12;;;;;;;-0.21;85.50;100460.34;1784700;80;21021;-51
2020/12/13 02:56:22;;;;;;;35.43;21.27;;;;;;;-0.18;85.55;100458.59;1784388;80;21603;-51
2020/12/13 02:58:50;;;;;;;32.73;21.27;;;;;;;-0.14;85.57;100456.30;1784641;80;21001;-51
2020/12/13 03:01:18;;;;;;;39.88;22.52;;;;;;;-0.13;85.58;100452.05;1784688;80;21186;-51
2020/12/13 03:03:47;;;;;;;34.43;21.62;;;;;;;-0.08;85.60;100456.86;1784392;80;21052;-51
2020/12/13 03:06:15;;;;;;;31.17;20.72;;;;;;;-0.06;85.54;100456.98;1791164;79;20985;-51
2020/12/13 03:08:43;;;;;;;33.78;21.37;;;;;;;-0.04;85.63;100461.65;1796293;79;21004;-51
2020/12/13 03:11:10;;;;;;;35.92;21.68;;;;;;;-0.02;85.49;100457.39;1796621;79;21013;-51
2020/12/13 03:13:38;;;;;;;31.00;20.32;;;;;;;-0.01;85.50;100463.94;1796435;79;21190;-51
2020/12/13 03:16:06;;;;;;;36.93;22.35;;;;;;;-0.02;85.41;100467.66;1796515;79;21028;-51
2020/12/13 03:18:34;;;;;;;32.78;20.50;;;;;;;-0.05;85.49;100468.08;1795581;79;21008;-51
2020/12/13 03:21:01;;;;;;;33.15;20.82;;;;;;;-0.04;85.57;100462.18;1796128;79;20976;-51
2020/12/13 03:23:28;;;;;;;33.25;21.60;;;;;;;-0.05;85.53;100470.78;1796038;79;21367;-51
2020/12/13 03:25:55;;;;;;;31.87;19.67;;;;;;;-0.05;85.57;100466.73;1796032;79;21551;-51
2020/12/13 03:28:23;;;;;;;35.20;20.57;;;;;;;-0.06;85.65;100463.73;1795942;79;21008;-52
2020/12/13 03:30:52;;;;;;;38.02;20.60;;;;;;;-0.09;85.72;100461.41;1795958;79;21032;-51
2020/12/13 03:33:22;;;;;;;37.45;20.17;;;;;;;-0.08;85.83;100459.56;1795813;79;20985;-51
2020/12/13 03:35:50;;;;;;;40.60;22.40;;;;;;;-0.05;85.91;100459.98;1796005;79;21532;-51
2020/12/13 03:38:18;;;;;;;47.70;24.72;;;;;;;-0.05;85.94;100449.17;1795893;79;21189;-52
2020/12/13 03:40:46;;;;;;;43.42;23.38;;;;;;;-0.03;86.09;100453.87;1795711;78;21551;-51
2020/12/13 03:43:14;;;;;;;45.08;23.52;;;;;;;0.01;86.30;100450.77;1795946;79;21009;-51
2020/12/13 03:45:41;;;;;;;45.98;25.88;;;;;;;0.05;86.22;100450.14;1795704;79;21005;-51
2020/12/13 03:48:08;;;;;;;47.15;24.27;;;;;;;0.09;86.25;100435.20;1795955;79;20982;-52
2020/12/13 03:50:39;;;;;;;45.52;27.02;;;;;;;0.14;86.16;100435.44;1795889;79;21193;-51
2020/12/13 03:53:15;;;;;;;42.90;22.85;;;;;;;0.18;86.15;100438.55;1795829;79;20997;-51
2020/12/13 03:55:44;;;;;;;58.78;26.15;;;;;;;0.21;86.17;100431.38;1795831;79;21001;-51
2020/12/13 03:58:13;;;;;;;42.10;21.90;;;;;;;0.20;86.05;100435.63;1795932;79;21036;-51
2020/12/13 04:00:40;;;;;;;41.88;25.27;;;;;;;0.20;86.11;100427.03;1795995;79;20981;-51
2020/12/13 04:03:08;;;;;;;41.83;25.48;;;;;;;0.23;86.17;100436.07;1795824;79;21674;-51
2020/12/13 04:05:35;;;;;;;39.18;23.05;;;;;;;0.22;86.20;100435.75;1794643;79;21627;-50
2020/12/13 04:08:03;;;;;;;36.17;22.35;;;;;;;0.24;86.25;100444.47;1783915;80;20985;-51
2020/12/13 04:10:30;;;;;;;35.65;22.80;;;;;;;0.25;86.16;100448.84;1783806;80;20989;-51
2020/12/13 04:12:57;;;;;;;37.67;22.80;;;;;;;0.29;86.30;100462.78;1784035;80;21604;-51
2020/12/13 04:15:26;;;;;;;31.97;19.80;;;;;;;0.35;86.26;100452.50;1783884;80;21365;-51
2020/12/13 04:17:54;;;;;;;32.40;21.30;;;;;;;0.39;86.21;100454.29;1783944;80;21017;-51
2020/12/13 04:20:21;;;;;;;32.67;20.70;;;;;;;0.41;86.19;100457.60;1783933;80;21136;-52
2020/12/13 04:22:49;;;;;;;33.18;20.88;;;;;;;0.41;86.18;100454.37;1784002;80;20993;-51
2020/12/13 04:25:18;;;;;;;31.70;21.00;;;;;;;0.44;86.19;100463.95;1783959;80;21132;-51
2020/12/13 04:27:46;;;;;;;34.05;22.32;;;;;;;0.42;86.09;100466.03;1783927;80;22348;-52
2020/12/13 04:30:13;;;;;;;41.77;24.55;;;;;;;0.42;86.28;100463.33;1783869;80;21013;-52
2020/12/13 04:32:41;;;;;;;36.05;22.22;;;;;;;0.47;86.38;100463.53;1783823;80;21053;-52
2020/12/13 04:35:09;;;;;;;42.73;22.25;;;;;;;0.47;86.34;100459.47;1783781;80;21020;-52
2020/12/13 04:37:37;;;;;;;43.87;23.12;;;;;;;0.49;86.43;100463.64;1784112;80;21556;-51
2020/12/13 04:40:05;;;;;;;40.50;21.60;;;;;;;0.51;86.36;100456.67;1783858;80;21270;-52
2020/12/13 04:42:37;;;;;;;45.45;21.17;;;;;;;0.54;86.40;100458.14;1783817;80;21107;-51
2020/12/13 04:45:07;;;;;;;36.35;22.67;;;;;;;0.56;86.53;100459.61;1783883;80;20935;-51
2020/12/13 04:47:43;;;;;;;47.00;24.20;;;;;;;0.59;86.53;100451.08;1783882;80;21013;-52
2020/12/13 04:50:13;;;;;;;49.80;23.92;;;;;;;0.62;86.51;100449.30;1783937;80;21065;-52
2020/12/13 04:52:41;;;;;;;37.85;21.33;;;;;;;0.68;86.48;100453.87;1753877;80;21391;-52
2020/12/13 04:55:09;;;;;;;44.18;25.10;;;;;;;0.70;86.43;100455.05;1729262;80;20974;-51
2020/12/13 04:57:38;;;;;;;42.20;23.22;;;;;;;0.71;86.54;100452.63;1783726;79;20997;-51
2020/12/13 05:00:05;;;;;;;44.75;25.48;;;;;;;0.76;86.51;100459.61;1783928;80;21021;-51
2020/12/13 05:02:32;;;;;;;38.80;24.07;;;;;;;0.77;86.35;100457.73;1783733;80;21052;-51
2020/12/13 05:05:00;;;;;;;46.55;23.70;;;;;;;0.80;86.37;100461.37;1783978;79;21137;-51
2020/12/13 05:07:28;;;;;;;43.40;25.43;;;;;;;0.81;86.26;100449.52;1783719;79;21005;-51
2020/12/13 05:09:55;;;;;;;45.78;26.85;;;;;;;0.83;86.34;100452.33;1783676;79;21498;-51
2020/12/13 05:12:32;;;;;;;45.40;27.23;;;;;;;0.91;86.41;100456.69;1787672;78;27808;-50
2020/12/13 05:15:03;;;;;;;40.52;24.27;;;;;;;0.97;86.25;100451.81;1777638;80;21041;-50
2020/12/13 05:17:35;;;;;;;44.30;24.70;;;;;;;1.00;86.09;100451.39;1777584;80;21622;-51
2020/12/13 05:20:03;;;;;;;36.38;23.00;;;;;;;1.01;86.04;100453.03;1746584;80;20998;-51
2020/12/13 05:22:38;;;;;;;41.08;27.45;;;;;;;1.01;86.05;100453.03;1720958;80;21670;-51
2020/12/13 05:25:15;;;;;;;43.48;23.35;;;;;;;1.03;86.14;100450.14;1777647;80;21021;-51
2020/12/13 05:27:42;;;;;;;;;;;;;;;1.02;86.08;100449.83;1780324;80;21628;-51
2020/12/13 05:30:09;;;;;;;41.90;23.67;;;;;;;1.01;86.12;100449.51;1777724;80;21189;-51
2020/12/13 05:32:37;;;;;;;44.85;28.38;;;;;;;0.99;86.21;100447.55;1777752;80;21002;-51
2020/12/13 05:35:05;;;;;;;38.73;24.92;;;;;;;0.97;86.28;100446.41;1777814;80;21431;-51
2020/12/13 05:37:33;;;;;;;44.65;25.75;;;;;;;0.98;86.40;100452.11;1777589;80;20990;-51
2020/12/13 05:40:01;;;;;;;49.93;26.57;;;;;;;0.98;86.55;100447.23;1777662;80;21721;-51
2020/12/13 05:42:39;;;;;;;42.55;24.23;;;;;;;0.98;86.60;100450.75;1747153;80;21207;-51
2020/12/13 05:53:11;;;;;;;42.88;25.65;;;;;;;1.18;87.07;100449.91;1846799;76;23325;-52
2020/12/13 05:55:38;;;;;;;51.73;30.10;;;;;;;1.13;86.98;100441.08;1816912;79;20962;-52
2020/12/13 05:58:06;;;;;;;50.45;30.27;;;;;;;1.15;87.00;100444.92;1816832;79;21947;-52
2020/12/13 06:00:34;;;;;;;46.10;26.37;;;;;;;1.18;86.92;100440.44;1816795;79;21038;-51
2020/12/13 06:03:04;;;;;;;43.92;27.17;;;;;;;1.19;86.95;100442.92;1816821;79;21591;-52
2020/12/13 06:05:36;;;;;;;46.10;28.65;;;;;;;1.20;86.90;100442.39;1816922;79;21560;-52
2020/12/13 06:08:05;;;;;;;44.53;25.35;;;;;;;1.19;86.89;100450.22;1816807;79;20994;-52
2020/12/13 06:10:34;;;;;;;40.45;27.70;;;;;;;1.18;86.99;100446.66;1816846;78;21184;-52
2020/12/13 06:13:04;;;;;;;45.43;27.20;;;;;;;1.20;86.96;100451.86;1816681;78;21022;-52
2020/12/13 06:15:33;;;;;;;43.02;27.87;;;;;;;1.20;87.00;100459.48;1816858;79;21607;-52
2020/12/13 06:18:03;;;;;;;37.42;24.45;;;;;;;1.21;87.10;100457.59;1816828;79;20962;-52
2020/12/13 06:20:30;;;;;;;39.58;25.32;;;;;;;1.21;87.13;100465.71;1816747;79;21034;-52
2020/12/13 06:22:59;;;;;;;34.83;22.07;;;;;;;1.20;87.14;100466.24;1816743;79;22387;-52
2020/12/13 06:25:27;;;;;;;43.48;26.48;;;;;;;1.22;87.20;100469.27;1816766;79;21411;-52
2020/12/13 06:27:57;;;;;;;41.75;25.48;;;;;;;1.20;87.11;100466.75;1816237;79;21072;-52
2020/12/13 06:30:26;;;;;;;38.42;23.70;;;;;;;1.18;87.16;100466.95;1816354;79;21026;-53
2020/12/13 06:32:55;;;;;;;49.00;27.27;;;;;;;1.17;87.20;100464.47;1785578;79;21001;-53
2020/12/13 06:35:22;;;;;;;46.63;27.73;;;;;;;1.14;87.23;100468.95;1816678;79;21370;-51
2020/12/13 06:37:50;;;;;;;48.92;27.60;;;;;;;1.11;87.43;100463.43;1816631;78;21045;-52
2020/12/13 06:42:54;;;;;;;46.83;28.57;;;;;;;1.18;87.58;100458.84;1888911;76;20984;-51
2020/12/13 06:45:22;;;;;;;52.33;30.17;;;;;;;1.13;87.59;100460.52;1859656;77;21001;-51
2020/12/13 06:47:51;;;;;;;48.00;30.45;;;;;;;1.15;87.62;100454.39;1770579;77;21204;-53
2020/12/13 06:50:22;;;;;;;54.33;32.45;;;;;;;1.19;87.61;100469.16;1859569;77;21009;-53
2020/12/13 06:52:50;;;;;;;52.67;31.30;;;;;;;1.21;87.55;100460.30;1859787;77;21009;-51
2020/12/13 06:55:18;;;;;;;62.90;33.33;;;;;;;1.18;87.59;100454.78;1859742;77;21467;-53
2020/12/13 06:57:49;;;;;;;57.20;31.55;;;;;;;1.14;87.62;100458.95;1859635;77;20930;-53
2020/12/13 07:00:16;;;;;;;59.05;34.00;;;;;;;1.13;87.74;100459.16;1859833;77;21173;-53
2020/12/13 07:02:57;;;;;;;60.38;33.38;;;;;;;1.10;87.83;100451.47;1859773;77;21032;-53
2020/12/13 07:05:58;;;;;;;52.13;29.18;;;;;;;1.10;87.91;100462.29;1859770;77;21693;-51
2020/12/13 07:08:27;;;;;;;59.77;29.23;;;;;;;1.11;88.02;100463.97;1859721;77;20981;-51
2020/12/13 07:10:55;;;;;;;56.80;33.65;;;;;;;1.14;88.19;100464.89;1859613;77;21001;-51
2020/12/13 07:13:25;;;;;;;53.17;32.73;;;;;;;1.18;88.16;100472.91;1859633;77;21307;-52
2020/12/13 07:16:07;;;;;;;64.62;35.73;;;;;;;1.18;88.07;100468.84;1859424;77;20997;-51
2020/12/13 07:18:32;;;;;;;65.65;37.10;;;;;;;1.18;88.03;100466.95;1859256;77;21001;-52
2020/12/13 07:20:59;;;;;;;60.70;30.95;;;;;;;1.15;88.01;100462.50;1859668;77;21004;-52
2020/12/13 07:23:27;;;;;;;67.15;35.98;;;;;;;1.17;88.13;100463.11;1859765;77;20942;-51
2020/12/13 07:26:00;;;;;;;57.62;34.23;;;;;;;1.17;88.11;100469.88;1859545;77;21190;-51
2020/12/13 07:28:24;;;;;;;67.80;36.23;;;;;;;1.20;88.19;100466.75;1859074;77;21009;-51
2020/12/13 07:30:55;;;;;;;63.90;35.55;;;;;;;1.20;88.09;100468.09;1827225;77;21035;-51
2020/12/13 07:33:23;;;;;;;67.90;38.70;;;;;;;1.20;88.25;100466.75;1770855;77;21025;-52
2020/12/13 07:35:50;;;;;;;61.63;36.17;;;;;;;1.26;88.19;100475.39;1859809;77;21013;-51
2020/12/13 07:38:19;;;;;;;68.00;37.10;;;;;;;1.30;88.13;100476.64;1859584;77;21026;-51
2020/12/13 07:40:48;;;;;;;56.30;31.80;;;;;;;1.32;88.01;100477.25;1817765;78;21974;-52
2020/12/13 07:43:15;;;;;;;61.53;34.70;;;;;;;1.30;88.00;100477.14;1826202;78;20981;-52
2020/12/13 07:45:46;;;;;;;63.20;38.40;;;;;;;1.30;87.97;100477.99;1825957;78;20967;-52
2020/12/13 07:48:15;;;;;;;69.15;37.00;;;;;;;1.28;87.92;100476.00;1825879;78;21020;-52
2020/12/13 07:51:01;;;;;;;69.82;37.83;;;;;;;1.31;87.95;100480.98;1835683;78;28160;-51
2020/12/13 07:53:28;;;;;;;66.65;36.90;;;;;;;1.23;88.05;100481.23;1777072;79;21037;-51
2020/12/13 07:55:56;;;;;;;66.77;40.30;;;;;;;1.26;88.22;100491.63;1808126;79;21618;-52
2020/12/13 07:58:24;;;;;;;68.02;39.67;;;;;;;1.32;88.17;100496.19;1808106;79;20978;-51
2020/12/13 08:00:53;;;;;;;66.87;35.90;;;;;;;1.32;88.03;100494.84;1808075;79;21034;-51
2020/12/13 08:03:20;;;;;;;66.00;34.13;;;;;;;1.30;88.07;100503.70;1808058;79;21001;-51
2020/12/13 08:05:48;;;;;;;64.42;33.67;;;;;;;1.32;88.12;100498.90;1808132;79;20954;-51
2020/12/13 08:08:15;;;;;;;63.38;35.85;;;;;;;1.34;88.08;100504.95;1808103;79;21469;-52
2020/12/13 08:10:43;;;;;;;55.95;32.88;;;;;;;1.37;88.00;100506.38;1808109;79;21030;-51
2020/12/13 08:13:11;;;;;;;66.30;37.65;;;;;;;1.41;88.02;100504.92;1808129;79;20979;-52
2020/12/13 08:15:38;;;;;;;52.60;29.95;;;;;;;1.41;87.82;100513.57;1808167;79;21931;-52
2020/12/13 08:18:13;;;;;;;56.37;31.12;;;;;;;1.37;87.87;100510.44;1808184;79;21002;-52
2020/12/13 08:20:46;;;;;;;64.60;39.33;;;;;;;1.36;87.87;100510.97;1807904;79;21420;-52
2020/12/13 08:23:13;;;;;;;69.03;40.65;;;;;;;1.35;87.95;100506.59;1807216;79;21061;-52
2020/12/13 08:25:41;;;;;;;57.83;35.65;;;;;;;1.39;88.01;100501.61;1807953;79;21457;-52
2020/12/13 08:28:12;;;;;;;55.50;29.92;;;;;;;1.41;88.01;100504.09;1807904;79;21517;-52
2020/12/13 08:30:40;;;;;;;57.55;32.83;;;;;;;1.41;87.89;100504.92;1777223;79;21053;-50
2020/12/13 08:33:11;;;;;;;57.93;36.55;;;;;;;1.39;87.85;100501.61;1807954;79;21184;-51
2020/12/13 08:35:38;;;;;;;62.08;38.98;;;;;;;1.38;87.92;100502.11;1808113;79;21042;-51
2020/12/13 08:38:06;;;;;;;65.92;38.08;;;;;;;1.43;88.01;100497.94;1808144;79;21331;-51
2020/12/13 08:40:41;;;;;;;58.10;32.88;;;;;;;1.44;87.84;100499.08;1799667;79;20997;-51
2020/12/13 08:43:10;;;;;;;50.40;31.57;;;;;;;1.44;87.86;100498.25;1776373;80;21632;-51
2020/12/13 08:45:37;;;;;;;50.80;32.28;;;;;;;1.43;87.82;100497.44;1776141;80;22323;-53
2020/12/13 08:48:07;;;;;;;64.42;38.30;;;;;;;1.44;87.74;100498.25;1775553;80;21405;-52
2020/12/13 08:50:40;;;;;;;59.77;34.03;;;;;;;1.40;87.71;100493.80;1768615;80;21026;-51
2020/12/13 08:53:22;;;;;;;54.85;31.65;;;;;;;1.40;87.88;100495.66;1765442;81;21663;-51
2020/12/13 08:56:05;;;;;;;61.30;33.80;;;;;;;1.39;87.83;100485.36;1765534;80;20971;-52
2020/12/13 08:58:57;;;;;;;59.83;35.80;;;;;;;1.38;87.97;100481.81;1765555;81;21277;-51
2020/12/13 09:01:25;;;;;;;65.37;33.00;;;;;;;1.47;88.12;100480.23;1765159;80;21010;-51
2020/12/13 09:03:53;;;;;;;55.00;32.42;;;;;;;1.47;87.74;100481.59;1764856;81;20970;-51
2020/12/13 09:06:30;;;;;;;56.48;33.35;;;;;;;1.44;87.85;100486.89;1765016;81;21053;-53
2020/12/13 09:11:53;;;;;;;53.95;33.35;;;;;;;1.62;87.81;100479.47;1850838;77;28571;-51
2020/12/13 09:14:32;;;;;;;52.03;31.15;;;;;;;1.54;87.57;100478.34;1818788;78;20997;-52
2020/12/13 09:17:00;;;;;;;52.93;30.08;;;;;;;1.49;87.56;100467.34;1749025;82;21205;-52
2020/12/13 09:19:29;;;;;;;50.08;25.92;;;;;;;1.46;87.54;100474.00;1818811;78;21284;-52
2020/12/13 09:22:01;;;;;;;56.23;32.05;;;;;;;1.45;87.61;100467.45;1749023;82;21013;-51
2020/12/13 09:24:32;;;;;;;54.20;32.40;;;;;;;1.45;87.58;100464.74;1818626;78;21006;-53
2020/12/13 09:27:11;;;;;;;54.50;33.10;;;;;;;1.48;87.58;100460.25;1818357;78;21026;-51
2020/12/13 09:29:39;;;;;;;51.70;30.82;;;;;;;1.50;87.57;100462.21;1818836;78;21186;-50
2020/12/13 09:32:07;;;;;;;49.88;28.67;;;;;;;1.50;87.43;100454.09;1748730;82;21049;-52
2020/12/13 09:34:36;;;;;;;49.48;28.35;;;;;;;1.49;87.43;100451.09;1818526;78;21278;-51
2020/12/13 09:37:10;;;;;;;61.68;34.23;;;;;;;1.50;87.41;100454.09;1749023;82;21038;-52
2020/12/13 09:39:40;;;;;;;52.88;31.68;;;;;;;1.53;87.36;100445.57;1818672;78;21556;-51
2020/12/13 09:42:11;;;;;;;62.17;33.18;;;;;;;1.57;87.39;100447.31;1743336;82;21387;-52
2020/12/13 09:44:39;;;;;;;52.00;29.23;;;;;;;1.60;87.40;100441.47;1784677;80;21049;-52
2020/12/13 09:47:07;;;;;;;55.23;33.73;;;;;;;1.64;87.20;100440.81;1747399;82;21050;-51
2020/12/13 09:49:35;;;;;;;63.73;36.15;;;;;;;1.66;87.18;100441.98;1784816;80;20935;-52
2020/12/13 09:52:04;;;;;;;56.77;33.13;;;;;;;1.66;86.88;100442.80;1784774;80;21052;-52
2020/12/13 09:54:35;;;;;;;50.45;27.67;;;;;;;1.63;86.88;100440.53;1747008;82;21343;-52
2020/12/13 09:57:02;;;;;;;50.30;31.25;;;;;;;1.59;86.79;100431.17;1784720;80;21977;-52
2020/12/13 09:59:30;;;;;;;52.58;33.23;;;;;;;1.58;86.94;100435.45;1784774;80;21006;-52
2020/12/13 10:01:57;;;;;;;54.75;36.08;;;;;;;1.62;87.00;100436.69;1747154;82;20999;-52
2020/12/13 10:04:25;;;;;;;55.80;31.90;;;;;;;1.59;86.85;100440.64;1784909;80;21041;-52
2020/12/13 10:09:33;;;;;;;57.98;32.95;;;;;;;1.61;87.00;100423.65;1846632;76;28944;-53
2020/12/13 10:12:00;;;;;;;60.48;33.48;;;;;;;1.57;86.96;100425.12;1816737;79;21567;-51
2020/12/13 10:14:28;;;;;;;63.20;37.93;;;;;;;1.58;86.93;100424.08;1816621;79;21275;-52
2020/12/13 10:16:56;;;;;;;64.03;34.10;;;;;;;1.56;86.86;100419.42;1816585;79;21033;-51
2020/12/13 10:19:25;;;;;;;57.38;32.70;;;;;;;1.55;86.97;100424.52;1816493;79;21048;-51
2020/12/13 10:21:53;;;;;;;61.92;36.17;;;;;;;1.58;86.98;100425.97;1816607;79;21562;-51
2020/12/13 10:24:22;;;;;;;63.45;35.75;;;;;;;1.58;86.93;100421.38;1814438;79;21041;-52
2020/12/13 10:26:49;;;;;;;58.28;33.85;;;;;;;1.58;86.81;100422.73;1816852;79;21968;-51
2020/12/13 10:29:17;;;;;;;68.00;35.15;;;;;;;1.54;86.87;100412.87;1816552;79;21001;-52
2020/12/13 10:31:46;;;;;;;63.55;35.35;;;;;;;1.52;86.90;100410.05;1816756;79;21029;-51
2020/12/13 10:34:16;;;;;;;64.07;37.03;;;;;;;1.53;87.01;100420.67;1816628;79;21018;-51
2020/12/13 10:36:46;;;;;;;69.27;37.58;;;;;;;1.58;86.97;100415.95;1816758;78;21029;-51
2020/12/13 10:39:19;;;;;;;67.08;38.20;;;;;;;1.60;86.87;100417.95;1816655;79;22062;-51
2020/12/13 10:41:43;;;;;;;70.12;36.60;;;;;;;1.59;86.80;100412.22;1790197;79;20982;-51
2020/12/13 10:44:14;;;;;;;54.48;28.73;;;;;;;1.56;86.73;100409.94;1784444;80;21484;-52
2020/12/13 10:46:47;;;;;;;73.30;41.05;;;;;;;1.53;86.86;100405.78;1784348;80;20966;-52
2020/12/13 10:49:14;;;;;;;71.40;41.00;;;;;;;1.55;86.96;100410.98;1784389;80;21256;-52
2020/12/13 10:51:43;;;;;;;74.25;38.63;;;;;;;1.58;86.87;100412.43;1784436;80;21414;-51
2020/12/13 10:54:11;;;;;;;70.70;38.23;;;;;;;1.55;86.80;100412.33;1784626;80;21123;-52
2020/12/13 10:56:39;;;;;;;61.88;35.05;;;;;;;1.51;86.82;100412.45;1784495;80;20985;-52
2020/12/13 10:59:06;;;;;;;70.78;39.80;;;;;;;1.51;86.92;100414.62;1784516;80;20981;-51
2020/12/13 11:01:33;;;;;;;68.87;36.10;;;;;;;1.56;86.96;100419.42;1784566;80;21017;-52
2020/12/13 11:04:01;;;;;;;64.53;36.30;;;;;;;1.58;86.98;100415.95;1784309;79;21192;-52
2020/12/13 11:06:30;;;;;;;57.03;31.35;;;;;;;1.59;87.00;100414.07;1784470;80;21037;-51
2020/12/13 11:09:01;;;;;;;56.68;30.62;;;;;;;1.60;86.95;100412.53;1791896;79;20993;-51
2020/12/13 11:11:27;;;;;;;59.55;34.55;;;;;;;1.63;86.95;100416.16;1796417;79;21036;-51
2020/12/13 11:13:55;;;;;;;63.05;36.48;;;;;;;1.64;86.78;100413.73;1796357;79;21126;-52
2020/12/13 11:16:22;;;;;;;56.92;34.23;;;;;;;1.66;86.78;100415.72;1796494;79;22468;-51
2020/12/13 11:18:49;;;;;;;55.85;31.25;;;;;;;1.66;86.70;100413.55;1796404;79;21059;-51
2020/12/13 11:21:17;;;;;;;52.13;28.47;;;;;;;1.66;86.78;100414.38;1795815;79;21041;-52
2020/12/13 11:23:45;;;;;;;50.65;30.77;;;;;;;1.67;86.67;100413.33;1795916;79;21009;-52
2020/12/13 11:26:13;;;;;;;46.28;29.15;;;;;;;1.66;86.68;100408.14;1795915;79;21001;-52
2020/12/13 11:28:40;;;;;;;53.70;33.05;;;;;;;1.68;86.74;100416.86;1795876;79;21283;-52
2020/12/13 11:31:07;;;;;;;45.73;27.93;;;;;;;1.67;86.70;100413.33;1795863;79;21025;-53
2020/12/13 11:33:35;;;;;;;42.08;26.15;;;;;;;1.71;86.82;100417.78;1795802;79;21421;-53
2020/12/13 11:36:02;;;;;;;41.48;27.93;;;;;;;1.76;86.77;100419.84;1795883;79;20961;-53
2020/12/13 11:38:29;;;;;;;43.05;27.02;;;;;;;1.81;86.66;100414.08;1795980;79;21036;-53
2020/12/13 11:40:57;;;;;;;41.88;28.07;;;;;;;1.79;86.46;100403.19;1795967;78;21195;-52